Time;durP1;ratioP1;P1;durP2;ratioP2;P2;SDS_P1;SDS_P2;PMS_P1;PMS_P2;Temp;Humidity;BMP_temperature;BMP_pressure;BME280_temperature;BME280_humidity;BME280_pressure;Samples;Min_cycle;Max_cycle;Signal;HPM_P1;HPM_P2
2021/12/25 00:00:35;;;;;;;4.35;2.78;;;;;;;11.34;54.17;100080.59;5029755;28;20053;-76
2021/12/25 00:03:03;;;;;;;3.67;2.70;;;;;;;11.32;54.16;100071.72;5028533;28;20119;-76
2021/12/25 00:05:30;;;;;;;4.18;3.03;;;;;;;11.28;54.38;100075.69;5029825;28;20037;-76
2021/12/25 00:07:56;;;;;;;4.00;2.83;;;;;;;11.26;54.50;100069.50;5027652;28;20212;-76
2021/12/25 00:10:23;;;;;;;3.65;2.50;;;;;;;11.25;54.70;100065.06;5029576;28;20119;-76
2021/12/25 00:12:53;;;;;;;5.72;3.05;;;;;;;11.24;54.73;100072.34;5028010;28;20136;-76
2021/12/25 00:15:20;;;;;;;4.25;2.95;;;;;;;11.24;54.54;100069.63;5029441;28;20049;-76
2021/12/25 00:17:48;;;;;;;4.53;2.72;;;;;;;11.24;54.53;100071.47;5039161;28;20045;-76
2021/12/25 00:20:15;;;;;;;4.30;3.00;;;;;;;11.22;54.71;100068.88;5029004;28;20131;-76
2021/12/25 00:22:42;;;;;;;4.10;3.00;;;;;;;11.22;54.62;100070.72;5027161;28;20041;-76
2021/12/25 00:25:09;;;;;;;3.78;2.85;;;;;;;11.20;54.42;100056.44;5029136;28;20060;-76
2021/12/25 00:27:46;;;;;;;4.00;2.97;;;;;;;11.21;54.47;100060.84;5027357;28;20491;-76
2021/12/25 00:30:23;;;;;;;4.05;2.90;;;;;;;11.19;54.67;100060.13;5010498;28;20546;-76
2021/12/25 00:33:02;;;;;;;4.32;2.80;;;;;;;11.19;54.65;100060.13;5027099;28;20057;-76
2021/12/25 00:35:28;;;;;;;4.43;2.90;;;;;;;11.17;54.31;100065.69;5029010;28;20095;-76
2021/12/25 00:37:56;;;;;;;4.43;2.97;;;;;;;11.18;54.68;100070.13;5026747;28;20099;-76
2021/12/25 00:40:22;;;;;;;5.15;3.03;;;;;;;11.18;54.94;100078.28;5028157;28;20081;-76
2021/12/25 00:42:49;;;;;;;4.75;3.05;;;;;;;11.19;54.60;100080.03;5027728;28;20045;-76
2021/12/25 00:45:16;;;;;;;4.72;2.85;;;;;;;11.21;54.90;100082.59;5027811;28;20467;-76
2021/12/25 00:47:43;;;;;;;4.30;3.08;;;;;;;11.21;54.87;100077.16;5027445;28;20161;-76
2021/12/25 00:50:10;;;;;;;5.30;3.63;;;;;;;11.22;54.82;100068.00;5028880;28;20050;-77
2021/12/25 00:52:37;;;;;;;5.03;3.63;;;;;;;11.23;54.49;100069.75;5027458;28;20542;-76
2021/12/25 00:55:06;;;;;;;5.18;3.53;;;;;;;11.22;54.69;100070.72;5028374;28;20084;-76
2021/12/25 00:57:34;;;;;;;4.63;3.10;;;;;;;11.22;54.42;100079.75;5025778;28;20049;-76
2021/12/25 01:00:01;;;;;;;4.55;3.00;;;;;;;11.21;54.68;100086.16;5028690;28;20489;-77
2021/12/25 01:02:27;;;;;;;4.55;2.67;;;;;;;11.22;54.69;100090.63;5026438;28;20468;-77
2021/12/25 01:04:54;;;;;;;4.43;2.90;;;;;;;11.25;54.75;100086.78;5028277;28;20060;-76
2021/12/25 01:07:21;;;;;;;4.68;2.90;;;;;;;11.26;54.59;100085.81;5024049;28;20156;-77
2021/12/25 01:09:48;;;;;;;3.53;2.28;;;;;;;11.28;54.90;100078.41;5029247;28;20073;-76
2021/12/25 01:12:16;;;;;;;3.63;2.25;;;;;;;11.29;54.62;100072.81;5027451;28;20076;-76
2021/12/25 01:14:49;;;;;;;3.28;2.17;;;;;;;11.30;54.29;100065.53;5028908;28;20103;-76
2021/12/25 01:18:12;;;;;;;4.15;2.40;;;;;;;11.30;54.50;100069.09;5027027;28;20048;-77
2021/12/25 01:49:26;;;;;;;4.47;3.05;;;;;;;10.83;53.76;100074.84;5035296;28;20053;-77
2021/12/25 01:51:53;;;;;;;5.40;3.45;;;;;;;10.79;53.84;100081.50;5031452;28;20143;-77
2021/12/25 01:54:20;;;;;;;4.38;3.10;;;;;;;10.76;53.96;100082.63;5032216;28;20045;-77
2021/12/25 01:56:48;;;;;;;5.10;3.50;;;;;;;10.74;53.94;100090.00;5030703;28;20444;-77
2021/12/25 01:59:16;;;;;;;4.93;3.45;;;;;;;10.73;54.00;100088.28;5030163;28;20104;-77
2021/12/25 02:01:43;;;;;;;5.80;4.22;;;;;;;10.70;53.55;100084.97;5031577;28;20072;-77
2021/12/25 02:04:10;;;;;;;5.50;3.60;;;;;;;10.65;53.65;100077.16;5025710;28;20045;-76
2021/12/25 02:06:38;;;;;;;4.80;3.30;;;;;;;10.63;53.84;100081.84;5029869;28;20443;-77
2021/12/25 02:09:05;;;;;;;6.10;4.05;;;;;;;10.59;53.47;100073.09;5030524;28;20157;-77
2021/12/25 02:11:33;;;;;;;6.15;3.83;;;;;;;10.54;53.41;100075.28;5031114;28;20049;-77
2021/12/25 02:13:59;;;;;;;6.25;3.90;;;;;;;10.49;53.46;100074.81;5030832;28;20475;-77
2021/12/25 02:16:36;;;;;;;5.68;3.78;;;;;;;10.45;53.38;100072.47;5034431;28;20484;-77
2021/12/25 02:19:10;;;;;;;6.50;4.32;;;;;;;10.35;53.66;100085.88;5030820;28;20077;-77
2021/12/25 02:21:39;;;;;;;5.47;3.63;;;;;;;10.32;53.43;100079.81;5031238;28;20544;-77
2021/12/25 02:24:09;;;;;;;5.78;4.10;;;;;;;10.29;53.25;100086.38;5030270;28;20041;-77
2021/12/25 02:26:38;;;;;;;6.50;4.55;;;;;;;10.24;53.51;100089.44;5023345;28;20132;-77
2021/12/25 02:29:04;;;;;;;6.28;4.20;;;;;;;10.20;53.60;100084.38;5028621;28;20088;-77
2021/12/25 02:31:32;;;;;;;7.50;4.60;;;;;;;10.18;53.52;100084.50;5030971;28;20041;-77
2021/12/25 02:33:59;;;;;;;6.70;4.68;;;;;;;10.17;53.75;100081.84;5029415;28;20038;-76
2021/12/25 02:36:26;;;;;;;7.63;5.00;;;;;;;10.14;53.78;100079.38;5029928;28;20115;-77
2021/12/25 02:38:53;;;;;;;7.38;4.93;;;;;;;10.13;53.91;100073.06;5030431;28;20049;-77
2021/12/25 02:41:20;;;;;;;7.88;5.05;;;;;;;10.10;53.63;100067.91;5030830;28;20396;-76
2021/12/25 02:43:48;;;;;;;7.32;4.75;;;;;;;10.11;53.83;100069.63;5030848;28;20366;-77
2021/12/25 02:46:15;;;;;;;8.10;5.60;;;;;;;10.07;53.63;100062.72;5030096;28;20068;-77
2021/12/25 02:48:42;;;;;;;7.90;5.65;;;;;;;10.06;53.80;100062.81;5030438;28;20544;-77
2021/12/25 02:51:11;;;;;;;7.82;5.25;;;;;;;10.06;53.71;100060.09;5030430;28;20068;-77
2021/12/25 02:53:39;;;;;;;8.05;5.20;;;;;;;10.05;53.87;100056.53;5029378;28;20077;-77
2021/12/25 02:56:07;;;;;;;8.05;5.32;;;;;;;10.04;53.80;100054.84;5031040;28;20053;-77
2021/12/25 02:58:33;;;;;;;8.00;6.13;;;;;;;10.02;53.72;100061.34;5028326;28;20104;-77
2021/12/25 03:01:10;;;;;;;8.38;6.18;;;;;;;10.05;53.55;100055.66;5028889;28;20061;-77
2021/12/25 03:03:37;;;;;;;7.78;5.57;;;;;;;9.98;53.36;100055.28;5029553;28;20052;-77
2021/12/25 03:06:05;;;;;;;8.45;5.95;;;;;;;9.97;53.48;100056.25;5029745;28;20041;-77
2021/12/25 03:08:33;;;;;;;9.45;6.10;;;;;;;9.95;53.57;100051.97;5028970;28;20076;-77
2021/12/25 03:11:02;;;;;;;8.13;5.90;;;;;;;9.90;53.80;100058.59;5025736;28;20091;-77
2021/12/25 03:13:36;;;;;;;9.20;6.22;;;;;;;9.90;53.55;100057.72;5030133;28;20073;-77
2021/12/25 03:16:14;;;;;;;9.40;6.78;;;;;;;9.86;53.63;100064.38;5027571;28;20128;-76
2021/12/25 03:18:47;;;;;;;8.95;6.28;;;;;;;9.82;53.61;100055.59;5030525;28;20054;-77
2021/12/25 03:21:16;;;;;;;;;;;;;;;9.61;53.90;100054.53;5028106;28;20064;-76
2021/12/25 03:23:43;;;;;;;8.20;5.78;;;;;;;9.75;53.58;100061.59;5029597;28;19929;-77
2021/12/25 03:26:10;;;;;;;8.60;6.68;;;;;;;9.73;53.51;100059.00;5027593;28;20523;-77
2021/12/25 03:28:41;;;;;;;8.35;5.95;;;;;;;9.73;53.57;100063.56;5028374;28;21529;-77
2021/12/25 03:31:15;;;;;;;8.00;5.60;;;;;;;9.71;53.67;100069.13;5029464;28;20029;-76
2021/12/25 03:33:49;;;;;;;8.70;6.13;;;;;;;9.65;53.56;100058.72;5028068;28;20077;-77
2021/12/25 03:36:16;;;;;;;10.93;6.40;;;;;;;9.63;53.50;100066.13;5028182;28;20482;-76
2021/12/25 03:38:44;;;;;;;8.77;5.68;;;;;;;9.62;53.59;100064.41;5034694;28;20076;-76
2021/12/25 03:41:11;;;;;;;8.77;6.00;;;;;;;9.61;53.63;100072.63;5029260;28;20076;-77
2021/12/25 03:43:40;;;;;;;8.52;5.80;;;;;;;9.59;53.84;100074.59;5029059;28;20151;-76
2021/12/25 03:46:09;;;;;;;8.18;5.72;;;;;;;9.61;53.76;100075.34;5028128;28;20515;-77
2021/12/25 03:59:15;;;;;;;8.95;5.88;;;;;;;9.52;53.73;100083.19;5029268;28;20079;-77
2021/12/25 04:01:52;;;;;;;9.70;6.78;;;;;;;9.50;53.77;100076.16;5027497;28;20468;-77
2021/12/25 04:04:26;;;;;;;9.68;6.80;;;;;;;9.47;53.59;100070.97;5028389;28;20554;-77
2021/12/25 04:07:02;;;;;;;8.88;6.78;;;;;;;9.46;53.52;100075.53;5011240;28;20103;-77
2021/12/25 04:09:41;;;;;;;9.15;6.85;;;;;;;9.40;53.51;100080.50;5027025;28;20111;-77
2021/12/25 04:12:11;;;;;;;9.90;7.20;;;;;;;9.40;53.40;100075.97;5028385;28;20054;-77
2021/12/25 04:14:39;;;;;;;10.40;7.47;;;;;;;9.35;53.44;100070.03;5028924;28;20136;-77
2021/12/25 04:17:06;;;;;;;9.10;6.72;;;;;;;9.32;53.30;100074.78;5022855;28;20539;-78
2021/12/25 04:19:33;;;;;;;9.23;7.03;;;;;;;9.28;53.26;100076.88;5029182;28;20088;-77
2021/12/25 04:22:04;;;;;;;10.55;6.97;;;;;;;9.25;53.51;100073.53;5027795;28;20104;-78
2021/12/25 04:24:38;;;;;;;9.43;6.57;;;;;;;9.25;53.63;100071.69;5010662;28;20496;-78
2021/12/25 04:27:09;;;;;;;9.40;6.75;;;;;;;9.23;53.27;100076.34;5027826;28;20045;-78
2021/12/25 04:29:46;;;;;;;10.50;6.90;;;;;;;9.23;53.79;100083.59;5029045;28;20049;-78
2021/12/25 05:04:31;;;;;;;10.52;7.53;;;;;;;9.06;53.76;100123.59;5028346;28;20050;-79
2021/12/25 05:06:57;;;;;;;9.77;7.28;;;;;;;9.04;53.63;100128.28;5018823;28;20053;-78
2021/12/25 05:09:24;;;;;;;9.90;7.50;;;;;;;9.02;53.53;100123.94;5028240;28;20505;-78
2021/12/25 05:11:51;;;;;;;10.50;7.85;;;;;;;9.00;53.49;100131.31;4998666;28;20073;-78
2021/12/25 05:14:18;;;;;;;10.40;7.80;;;;;;;8.98;53.81;100125.13;5021239;28;20840;-79
2021/12/25 05:16:44;;;;;;;9.50;6.75;;;;;;;8.97;53.77;100123.44;5029730;28;20111;-79
2021/12/25 05:19:12;;;;;;;10.00;8.00;;;;;;;8.97;53.74;100128.84;5032412;28;20468;-79
2021/12/25 05:21:39;;;;;;;9.75;7.75;;;;;;;8.94;53.64;100121.78;5030711;28;20128;-78
2021/12/25 05:24:06;;;;;;;8.90;7.53;;;;;;;8.92;53.74;100128.28;5031332;28;20041;-79
2021/12/25 05:26:34;;;;;;;10.27;7.88;;;;;;;8.92;53.47;100121.03;5017688;28;20049;-79
2021/12/25 05:29:02;;;;;;;9.27;7.00;;;;;;;8.89;53.50;100118.56;5021529;28;20049;-78
2021/12/25 05:31:34;;;;;;;10.02;7.22;;;;;;;8.88;53.88;100122.25;5032193;28;20382;-78
2021/12/25 05:34:02;;;;;;;9.40;7.10;;;;;;;8.87;53.71;100127.75;4986501;28;20133;-79
2021/12/25 05:36:29;;;;;;;9.95;7.47;;;;;;;8.84;53.68;100125.25;4988597;28;20125;-78
2021/12/25 05:38:59;;;;;;;9.50;7.47;;;;;;;8.86;53.48;100126.03;4990375;28;20591;-78
2021/12/25 05:41:29;;;;;;;11.10;8.15;;;;;;;8.83;53.62;100129.81;4990355;28;20132;-78
2021/12/25 05:43:56;;;;;;;12.05;9.00;;;;;;;8.78;53.66;100123.88;4973661;28;20186;-78
2021/12/25 05:46:24;;;;;;;10.85;8.38;;;;;;;8.72;53.67;100127.88;4989735;28;20100;-79
2021/12/25 05:48:51;;;;;;;10.10;8.02;;;;;;;8.67;53.54;100116.50;4989984;28;20046;-79
2021/12/25 05:51:23;;;;;;;11.15;8.15;;;;;;;8.64;53.69;100122.16;4988941;28;20486;-79
2021/12/25 05:53:49;;;;;;;11.63;8.68;;;;;;;8.60;53.67;100126.03;4990394;28;20073;-79
2021/12/25 05:56:16;;;;;;;10.77;7.88;;;;;;;8.55;53.80;100125.50;4989638;28;20116;-78
2021/12/25 05:58:43;;;;;;;10.60;8.43;;;;;;;8.51;53.60;100123.09;4988784;28;20413;-79
2021/12/25 06:01:11;;;;;;;10.32;8.48;;;;;;;8.47;53.92;100125.16;4989374;28;20068;-79
2021/12/25 06:03:38;;;;;;;9.88;7.20;;;;;;;8.45;53.70;100128.94;5001629;28;20285;-79
2021/12/25 06:06:06;;;;;;;10.82;8.30;;;;;;;8.40;53.89;100134.66;5027530;28;20132;-79
2021/12/25 06:08:33;;;;;;;9.70;7.03;;;;;;;8.36;53.85;100136.72;5030219;28;20076;-79
2021/12/25 06:11:03;;;;;;;11.38;8.15;;;;;;;8.28;53.89;100141.75;5013734;28;20076;-79
2021/12/25 06:13:37;;;;;;;9.73;7.50;;;;;;;8.23;54.05;100148.47;5033691;28;20782;-79
2021/12/25 06:16:04;;;;;;;10.82;7.45;;;;;;;8.19;53.82;100146.94;5013652;28;20558;-79
2021/12/25 06:18:31;;;;;;;8.85;6.85;;;;;;;8.17;53.78;100165.09;5030617;28;20042;-79
2021/12/25 06:20:57;;;;;;;8.93;6.72;;;;;;;8.13;54.08;100161.75;5013855;28;20637;-79
2021/12/25 06:23:26;;;;;;;8.88;6.65;;;;;;;8.10;53.92;100159.25;5031115;28;20038;-78
2021/12/25 06:25:52;;;;;;;9.52;7.35;;;;;;;8.02;53.93;100165.16;5030717;28;20152;-79
2021/12/25 06:28:19;;;;;;;9.52;6.55;;;;;;;8.01;53.93;100168.84;5030361;28;20354;-79
2021/12/25 06:30:47;;;;;;;7.97;5.78;;;;;;;7.96;53.91;100171.00;5031159;28;20128;-79
2021/12/25 06:33:14;;;;;;;8.57;6.35;;;;;;;7.96;54.23;100170.13;5030920;28;20053;-78
2021/12/25 06:35:41;;;;;;;8.73;6.45;;;;;;;7.89;54.06;100166.97;5029422;28;20073;-77
2021/12/25 06:38:08;;;;;;;8.07;6.10;;;;;;;7.84;54.06;100174.50;5029535;28;20104;-77
2021/12/25 06:40:34;;;;;;;7.93;5.88;;;;;;;7.79;54.17;100181.19;5031632;28;20041;-77
2021/12/25 06:43:02;;;;;;;8.15;5.90;;;;;;;7.73;54.08;100173.50;5030462;28;20061;-78
2021/12/25 06:45:28;;;;;;;7.40;5.55;;;;;;;7.67;54.27;100176.56;5013012;28;20077;-78
2021/12/25 06:47:55;;;;;;;7.07;5.40;;;;;;;7.61;54.37;100180.56;5029269;28;20073;-78
2021/12/25 06:50:23;;;;;;;7.13;5.45;;;;;;;7.54;54.17;100188.19;5030807;28;20053;-78
2021/12/25 06:52:50;;;;;;;8.18;5.63;;;;;;;7.50;54.21;100192.06;5013394;28;20451;-78
2021/12/25 06:55:17;;;;;;;8.00;5.68;;;;;;;7.45;54.53;100194.19;5030004;28;20049;-78
2021/12/25 06:57:51;;;;;;;8.82;5.97;;;;;;;7.41;54.54;100183.69;5029307;28;20540;-77
2021/12/25 07:00:18;;;;;;;8.15;5.97;;;;;;;7.37;54.45;100193.81;5030513;28;20084;-77
2021/12/25 07:02:45;;;;;;;7.05;5.50;;;;;;;7.30;54.39;100200.59;5030301;28;20115;-77
2021/12/25 07:05:12;;;;;;;7.85;5.53;;;;;;;7.28;54.56;100196.22;5030358;28;20351;-77
2021/12/25 07:07:38;;;;;;;7.53;5.30;;;;;;;7.28;54.53;100204.34;5036808;28;20102;-77
2021/12/25 07:10:06;;;;;;;7.78;5.88;;;;;;;7.23;54.45;100201.94;5030014;28;20535;-78
2021/12/25 07:12:37;;;;;;;7.28;5.00;;;;;;;7.18;55.11;100202.22;5012581;28;20103;-77
2021/12/25 07:15:05;;;;;;;7.88;5.65;;;;;;;7.17;54.91;100213.97;5013034;28;20136;-78
2021/12/25 07:17:32;;;;;;;6.68;5.13;;;;;;;7.16;54.75;100209.56;5028931;28;20049;-78
2021/12/25 07:19:59;;;;;;;7.35;5.18;;;;;;;7.13;54.95;100209.75;5030364;28;20137;-77
2021/12/25 07:22:26;;;;;;;8.38;5.55;;;;;;;7.12;54.99;100213.41;5029404;28;20535;-78
2021/12/25 07:24:53;;;;;;;7.15;5.05;;;;;;;7.10;55.10;100215.31;5030825;28;20107;-78
2021/12/25 07:27:20;;;;;;;7.05;5.25;;;;;;;7.07;55.22;100226.34;5044643;28;20096;-78
2021/12/25 07:29:48;;;;;;;6.88;5.22;;;;;;;7.06;55.02;100221.03;5015367;28;20397;-78
2021/12/25 07:32:14;;;;;;;6.85;5.22;;;;;;;7.07;55.09;100231.75;5028968;28;20049;-78
2021/12/25 07:34:41;;;;;;;7.20;5.60;;;;;;;7.06;55.19;100237.22;5030763;28;20084;-79
2021/12/25 07:37:08;;;;;;;8.45;5.72;;;;;;;7.04;54.96;100229.22;5028087;28;20081;-78
2021/12/25 07:39:34;;;;;;;8.18;5.32;;;;;;;7.01;54.85;100229.41;5029828;28;20136;-77
2021/12/25 07:42:01;;;;;;;7.22;5.53;;;;;;;6.98;55.02;100235.00;5031162;28;20481;-78
2021/12/25 07:44:27;;;;;;;6.85;5.28;;;;;;;6.99;54.84;100236.75;5028507;28;20045;-78
2021/12/25 07:46:54;;;;;;;7.50;5.50;;;;;;;6.95;55.29;100232.47;5027525;28;20455;-78
2021/12/25 07:49:22;;;;;;;7.15;5.50;;;;;;;6.93;55.40;100244.31;5029457;28;20099;-78
2021/12/25 07:51:49;;;;;;;7.32;5.72;;;;;;;6.89;55.07;100243.66;5010962;28;20512;-77
2021/12/25 07:54:16;;;;;;;8.48;6.30;;;;;;;6.86;55.37;100258.19;5027397;28;20103;-78
2021/12/25 07:56:42;;;;;;;7.90;5.95;;;;;;;6.84;55.33;100237.66;5026765;28;20262;-77
2021/12/25 07:59:09;;;;;;;8.15;6.20;;;;;;;6.79;55.00;100245.19;5015091;28;20099;-77
2021/12/25 08:01:36;;;;;;;8.45;6.10;;;;;;;6.77;55.22;100257.88;5033441;28;20053;-77
2021/12/25 08:04:04;;;;;;;8.55;6.38;;;;;;;6.75;55.13;100260.66;5028022;28;20045;-76
2021/12/25 08:06:31;;;;;;;7.40;5.50;;;;;;;6.73;55.27;100268.00;5033966;28;20045;-76
2021/12/25 08:09:01;;;;;;;7.90;6.07;;;;;;;6.70;55.13;100276.28;5029763;28;20091;-77
2021/12/25 08:11:30;;;;;;;7.25;5.97;;;;;;;6.68;55.46;100270.09;5029127;28;20041;-78
2021/12/25 08:13:57;;;;;;;7.78;5.50;;;;;;;6.69;55.43;100276.38;5025464;28;20500;-79
2021/12/25 08:16:24;;;;;;;7.03;5.22;;;;;;;6.70;55.77;100275.41;5027742;28;20151;-75
2021/12/25 08:18:50;;;;;;;8.23;6.10;;;;;;;6.67;55.37;100270.22;5015679;28;20459;-76
2021/12/25 08:21:17;;;;;;;8.95;5.88;;;;;;;6.66;55.46;100279.28;5025497;28;20045;-76
2021/12/25 08:23:44;;;;;;;7.43;5.93;;;;;;;6.64;55.41;100281.19;5022612;28;20091;-76
2021/12/25 08:26:15;;;;;;;7.13;5.65;;;;;;;6.64;55.52;100275.78;5025165;28;20146;-76
2021/12/25 08:28:42;;;;;;;7.20;5.38;;;;;;;6.64;55.63;100289.28;5017294;28;20049;-76
2021/12/25 08:31:08;;;;;;;7.63;5.55;;;;;;;6.64;55.56;100289.28;5020737;28;20501;-76
2021/12/25 08:33:35;;;;;;;7.55;5.43;;;;;;;6.64;55.80;100291.97;5021823;28;20049;-76
2021/12/25 08:36:02;;;;;;;6.97;5.45;;;;;;;6.62;55.41;100292.06;5022123;28;20156;-76
2021/12/25 08:38:28;;;;;;;8.50;6.47;;;;;;;6.56;55.69;100300.53;5021101;28;20049;-76
2021/12/25 08:40:56;;;;;;;6.90;5.55;;;;;;;6.54;55.60;100302.44;5023866;28;20045;-76
2021/12/25 08:43:25;;;;;;;7.78;5.90;;;;;;;6.52;55.55;100295.38;5020024;28;20501;-77
2021/12/25 08:46:15;;;;;;;6.75;5.32;;;;;;;6.51;55.68;100304.47;5022284;28;20464;-75
2021/12/25 08:48:42;;;;;;;7.43;5.80;;;;;;;6.48;55.55;100298.28;5020063;28;20123;-76
2021/12/25 08:51:09;;;;;;;7.40;5.75;;;;;;;6.43;55.45;100299.47;5021080;28;20041;-76
2021/12/25 08:53:36;;;;;;;8.15;6.32;;;;;;;6.48;55.67;100309.06;5018803;28;20148;-76
2021/12/25 08:56:03;;;;;;;9.10;6.55;;;;;;;6.40;55.61;100314.03;5022416;28;20056;-75
2021/12/25 08:58:31;;;;;;;8.40;5.63;;;;;;;6.42;55.44;100311.25;5019937;28;20115;-76
2021/12/25 09:01:01;;;;;;;7.15;5.53;;;;;;;6.44;55.89;100312.88;5024757;28;20073;-76
2021/12/25 09:03:30;;;;;;;7.30;5.57;;;;;;;6.45;55.71;100313.75;5018957;28;20049;-76
2021/12/25 09:06:00;;;;;;;7.15;5.55;;;;;;;6.45;55.66;100321.84;5017905;28;20049;-76
2021/12/25 09:08:27;;;;;;;7.40;6.10;;;;;;;6.45;55.34;100320.00;5019111;28;20130;-75
2021/12/25 09:10:54;;;;;;;7.75;6.05;;;;;;;6.41;55.92;100321.16;5034315;28;20054;-76
2021/12/25 09:13:22;;;;;;;7.05;5.55;;;;;;;6.41;55.39;100325.69;5017667;28;20512;-76
2021/12/25 09:15:49;;;;;;;7.53;5.97;;;;;;;6.39;55.45;100323.06;5022173;28;20531;-76
2021/12/25 09:18:15;;;;;;;9.00;5.97;;;;;;;6.37;55.75;100327.69;5018157;28;20133;-76
2021/12/25 09:20:42;;;;;;;7.82;5.90;;;;;;;6.38;55.51;100332.13;5026595;28;20137;-76
2021/12/25 09:23:09;;;;;;;7.35;5.55;;;;;;;6.35;55.61;100326.03;5027864;28;20056;-76
2021/12/25 09:25:37;;;;;;;7.75;5.97;;;;;;;6.34;55.94;100337.78;5029054;28;20045;-76
2021/12/25 09:28:04;;;;;;;7.63;5.70;;;;;;;6.36;55.63;100334.03;5021807;28;20423;-76
2021/12/25 09:30:30;;;;;;;7.75;5.80;;;;;;;6.35;55.46;100339.50;5022447;28;20049;-76
2021/12/25 09:32:57;;;;;;;7.22;5.65;;;;;;;6.33;55.67;100342.31;5025381;28;20041;-76
2021/12/25 09:35:24;;;;;;;8.02;5.72;;;;;;;6.34;55.73;100345.88;5026344;28;20046;-76
2021/12/25 09:37:51;;;;;;;7.63;6.25;;;;;;;6.33;55.62;100345.00;5024559;28;20206;-76
2021/12/25 09:40:17;;;;;;;8.20;5.65;;;;;;;6.35;55.59;100348.47;5027958;28;20088;-76
2021/12/25 09:42:44;;;;;;;7.75;5.35;;;;;;;6.35;55.69;100348.47;5027959;28;20115;-75
2021/12/25 09:45:13;;;;;;;7.47;5.82;;;;;;;6.36;55.71;100349.34;5028707;28;20102;-76
2021/12/25 09:47:41;;;;;;;6.65;5.15;;;;;;;6.36;55.76;100357.41;5040778;28;20072;-76
2021/12/25 09:50:09;;;;;;;7.05;5.65;;;;;;;6.36;55.92;100361.00;5030555;28;20084;-76
2021/12/25 09:52:35;;;;;;;8.07;6.05;;;;;;;6.38;55.69;100361.78;5027047;28;20069;-76
2021/12/25 09:55:03;;;;;;;6.90;5.75;;;;;;;6.38;55.66;100367.16;5028221;28;20054;-75
2021/12/25 09:57:34;;;;;;;8.30;6.13;;;;;;;6.36;55.80;100358.28;5026148;28;20590;-75
2021/12/25 10:00:08;;;;;;;7.82;5.85;;;;;;;6.37;55.95;100356.47;5023304;28;20120;-75
2021/12/25 10:02:52;;;;;;;7.43;5.47;;;;;;;6.39;55.83;100371.63;5026276;28;20049;-75
2021/12/25 10:05:33;;;;;;;7.28;5.40;;;;;;;6.38;56.05;100364.47;5022383;28;20038;-75
2021/12/25 10:08:11;;;;;;;7.68;5.35;;;;;;;6.36;56.08;100371.78;5024202;28;20049;-75
2021/12/25 10:10:50;;;;;;;6.85;4.85;;;;;;;6.38;55.65;100369.88;5025633;28;20095;-76
2021/12/25 10:13:41;;;;;;;7.63;5.40;;;;;;;6.39;55.69;100374.31;5026052;28;20068;-75
2021/12/25 10:16:26;;;;;;;6.53;5.13;;;;;;;6.43;55.46;100377.69;5020076;28;20104;-75
2021/12/25 10:19:10;;;;;;;7.85;5.38;;;;;;;6.40;55.36;100381.44;5027033;28;20045;-75
2021/12/25 10:21:37;;;;;;;7.95;5.65;;;;;;;6.39;55.64;100381.53;5024952;28;20053;-75
2021/12/25 10:24:12;;;;;;;7.43;5.35;;;;;;;6.40;55.45;100373.34;5011171;28;20580;-75
2021/12/25 10:26:42;;;;;;;7.10;5.22;;;;;;;6.41;55.52;100368.84;5020716;28;20564;-75
2021/12/25 10:29:24;;;;;;;8.02;5.82;;;;;;;6.45;55.26;100368.56;5028280;28;20127;-75
2021/12/25 10:31:53;;;;;;;7.32;5.22;;;;;;;6.40;55.46;100367.97;5026876;28;20540;-75
2021/12/25 10:34:23;;;;;;;6.72;4.90;;;;;;;6.41;55.42;100369.69;5023100;28;20037;-75
2021/12/25 10:36:50;;;;;;;7.22;5.32;;;;;;;6.35;55.17;100371.84;5030430;28;20045;-75
2021/12/25 10:39:22;;;;;;;6.43;5.07;;;;;;;6.36;55.03;100366.38;5036138;28;20037;-75
2021/12/25 10:41:53;;;;;;;7.25;5.22;;;;;;;6.30;55.39;100358.66;5012533;28;20501;-75
2021/12/25 10:44:26;;;;;;;6.50;5.05;;;;;;;6.36;54.98;100358.28;5030533;28;20758;-75
2021/12/25 10:47:02;;;;;;;7.18;4.80;;;;;;;6.35;55.20;100363.75;5030870;28;20107;-75
2021/12/25 10:49:38;;;;;;;6.93;5.10;;;;;;;6.33;55.36;100358.50;5030791;28;20056;-75
2021/12/25 10:52:30;;;;;;;6.97;4.60;;;;;;;6.37;55.16;100368.13;5030730;28;20574;-76
2021/12/25 10:55:14;;;;;;;7.13;4.65;;;;;;;6.35;55.27;100359.25;5030102;28;20081;-75
2021/12/25 10:57:52;;;;;;;7.50;4.97;;;;;;;6.37;55.24;100361.84;5029530;28;20049;-75
2021/12/25 11:00:22;;;;;;;7.70;5.40;;;;;;;6.37;54.87;100359.16;5031417;28;20092;-75
2021/12/25 11:02:55;;;;;;;6.63;4.45;;;;;;;6.38;54.91;100356.38;5028161;28;20398;-75
2021/12/25 11:05:26;;;;;;;6.57;4.82;;;;;;;6.34;55.04;100352.09;5022696;28;20080;-75
2021/12/25 11:08:12;;;;;;;6.30;4.43;;;;;;;6.32;54.57;100355.88;5019252;28;20048;-75
2021/12/25 11:10:59;;;;;;;6.65;5.07;;;;;;;6.30;54.69;100350.56;5031476;28;20132;-75
2021/12/25 11:13:41;;;;;;;7.22;4.90;;;;;;;6.29;55.03;100350.66;5019303;28;20135;-75
2021/12/25 11:16:11;;;;;;;6.05;4.32;;;;;;;6.27;55.04;100352.56;5010326;28;20068;-75
2021/12/25 11:19:07;;;;;;;6.00;4.63;;;;;;;6.28;54.76;100354.28;5029536;28;20576;-75
2021/12/25 11:21:41;;;;;;;5.68;4.03;;;;;;;6.29;54.84;100353.34;5030183;28;20640;-75
2021/12/25 11:24:15;;;;;;;6.40;4.85;;;;;;;6.30;55.00;100365.88;5020289;28;20567;-75
2021/12/25 11:26:45;;;;;;;5.65;4.13;;;;;;;6.30;54.79;100365.88;5011998;28;20555;-75
2021/12/25 11:29:14;;;;;;;5.97;4.35;;;;;;;6.32;55.19;100377.44;5020723;28;20095;-75
2021/12/25 11:31:43;;;;;;;5.65;4.15;;;;;;;6.36;55.09;100370.91;5027107;28;20049;-75
2021/12/25 11:34:09;;;;;;;6.25;4.30;;;;;;;6.35;54.96;100388.03;5029406;28;20049;-75
2021/12/25 11:36:39;;;;;;;6.25;3.92;;;;;;;6.35;55.21;100398.81;5031871;28;20061;-75
2021/12/25 11:39:06;;;;;;;5.47;4.05;;;;;;;6.38;54.60;100388.75;5019692;28;20132;-75
2021/12/25 11:41:35;;;;;;;4.93;3.80;;;;;;;6.38;54.62;100394.13;5027414;28;20056;-75
2021/12/25 11:44:07;;;;;;;6.40;3.97;;;;;;;6.38;54.69;100394.13;5026665;28;20085;-75
2021/12/25 11:46:40;;;;;;;5.60;3.83;;;;;;;6.40;54.27;100392.22;5011903;28;20492;-75
2021/12/25 11:49:10;;;;;;;5.05;3.67;;;;;;;6.39;54.63;100406.66;5028867;28;20524;-75
2021/12/25 11:51:40;;;;;;;5.07;3.75;;;;;;;6.40;54.88;100396.75;5029635;28;20046;-75
2021/12/25 11:54:55;;;;;;;6.13;4.05;;;;;;;6.37;54.10;100397.78;5028951;28;20538;-75
2021/12/25 11:59:47;;;;;;;5.18;3.70;;;;;;;6.40;54.03;100399.44;5030269;28;20096;-75
2021/12/25 12:02:40;;;;;;;8.23;3.90;;;;;;;6.38;54.05;100393.25;5015979;28;20050;-75
2021/12/25 12:05:24;;;;;;;4.28;3.10;;;;;;;6.36;53.77;100387.94;5026846;28;20103;-75
2021/12/25 12:08:04;;;;;;;5.25;3.75;;;;;;;6.37;53.91;100387.00;5018640;28;20123;-75
2021/12/25 12:10:55;;;;;;;4.85;3.80;;;;;;;6.35;53.69;100377.25;5030055;28;20057;-75
2021/12/25 12:13:31;;;;;;;5.28;3.88;;;;;;;6.31;53.50;100381.09;5028948;28;20049;-75
2021/12/25 12:16:03;;;;;;;5.00;3.50;;;;;;;6.30;53.94;100372.13;5029593;28;20042;-75
2021/12/25 12:18:35;;;;;;;5.93;3.60;;;;;;;6.30;54.15;100372.13;5027062;28;20077;-75
2021/12/25 12:21:08;;;;;;;4.05;2.85;;;;;;;6.27;53.92;100363.34;5028131;28;20582;-75
2021/12/25 12:23:57;;;;;;;;;;;;;;;6.09;54.34;100365.28;5028300;28;20452;-75
2021/12/25 12:26:44;;;;;;;4.97;3.08;;;;;;;6.26;53.71;100364.31;5011666;28;19959;-75
2021/12/25 12:29:12;;;;;;;5.95;3.92;;;;;;;6.23;54.25;100367.19;5028363;28;20552;-75
2021/12/25 12:31:43;;;;;;;5.60;3.85;;;;;;;6.28;53.79;100365.09;5028242;28;20043;-75
2021/12/25 12:34:28;;;;;;;7.10;4.55;;;;;;;6.28;53.00;100367.78;5029184;28;20452;-75
2021/12/25 12:37:13;;;;;;;5.68;3.80;;;;;;;6.26;53.51;100362.47;5043973;28;20093;-75
2021/12/25 12:40:05;;;;;;;5.95;3.83;;;;;;;6.23;53.66;100372.56;5029108;28;20088;-75
2021/12/25 12:42:41;;;;;;;5.30;3.75;;;;;;;6.23;53.39;100376.13;5027597;28;20073;-75
2021/12/25 12:45:33;;;;;;;5.45;3.42;;;;;;;6.22;53.75;100379.78;5029496;28;20115;-75
2021/12/25 12:48:10;;;;;;;5.93;3.92;;;;;;;6.20;53.38;100386.22;5027258;28;20129;-75
2021/12/25 12:50:39;;;;;;;5.35;4.00;;;;;;;6.23;53.81;100386.03;5028083;28;20053;-75
2021/12/25 12:53:09;;;;;;;5.43;3.70;;;;;;;6.22;53.58;100390.56;5029016;28;20049;-75
2021/12/25 12:55:42;;;;;;;5.32;3.70;;;;;;;6.22;53.43;100395.97;5029980;28;20045;-75
2021/12/25 12:58:14;;;;;;;5.78;3.67;;;;;;;6.22;53.58;100395.97;5037518;28;20072;-75
2021/12/25 13:00:45;;;;;;;5.45;3.30;;;;;;;6.21;53.79;100396.03;5028971;28;20188;-75